sensor_id;sensor_type;location;lat;lon;timestamp;P1;durP1;ratioP1;P2;durP2;ratioP2
29210;SDS011;16250;49.932;10.980;2023-05-10T00:01:15;7.90;;;3.80;;
29210;SDS011;16250;49.932;10.980;2023-05-10T00:03:41;7.15;;;3.65;;
29210;SDS011;16250;49.932;10.980;2023-05-10T00:06:06;6.32;;;4.20;;
29210;SDS011;16250;49.932;10.980;2023-05-10T00:08:32;7.10;;;3.88;;
29210;SDS011;16250;49.932;10.980;2023-05-10T00:10:57;5.18;;;3.85;;
29210;SDS011;16250;49.932;10.980;2023-05-10T00:13:22;4.78;;;3.90;;
29210;SDS011;16250;49.932;10.980;2023-05-10T00:15:48;5.63;;;4.10;;
29210;SDS011;16250;49.932;10.980;2023-05-10T00:18:13;7.82;;;4.45;;
29210;SDS011;16250;49.932;10.980;2023-05-10T00:20:39;4.90;;;4.32;;
29210;SDS011;16250;49.932;10.980;2023-05-10T00:23:04;3.92;;;3.53;;
29210;SDS011;16250;49.932;10.980;2023-05-10T00:25:29;7.50;;;4.28;;
29210;SDS011;16250;49.932;10.980;2023-05-10T00:27:55;4.63;;;4.00;;
29210;SDS011;16250;49.932;10.980;2023-05-10T00:30:22;6.38;;;4.05;;
29210;SDS011;16250;49.932;10.980;2023-05-10T00:32:47;5.20;;;4.00;;
29210;SDS011;16250;49.932;10.980;2023-05-10T00:35:14;6.90;;;4.22;;
29210;SDS011;16250;49.932;10.980;2023-05-10T00:37:40;7.13;;;3.90;;
29210;SDS011;16250;49.932;10.980;2023-05-10T00:40:06;5.90;;;4.28;;
29210;SDS011;16250;49.932;10.980;2023-05-10T00:42:32;4.78;;;3.75;;
29210;SDS011;16250;49.932;10.980;2023-05-10T00:44:57;5.32;;;4.32;;
29210;SDS011;16250;49.932;10.980;2023-05-10T00:47:23;4.95;;;3.90;;
29210;SDS011;16250;49.932;10.980;2023-05-10T00:49:48;4.40;;;4.00;;
29210;SDS011;16250;49.932;10.980;2023-05-10T00:52:14;6.75;;;3.53;;
29210;SDS011;16250;49.932;10.980;2023-05-10T00:54:40;5.15;;;3.80;;
29210;SDS011;16250;49.932;10.980;2023-05-10T00:57:05;8.00;;;4.07;;
29210;SDS011;16250;49.932;10.980;2023-05-10T00:59:30;5.13;;;4.25;;
29210;SDS011;16250;49.932;10.980;2023-05-10T01:01:56;6.88;;;4.40;;
29210;SDS011;16250;49.932;10.980;2023-05-10T01:04:22;5.97;;;4.40;;
29210;SDS011;16250;49.932;10.980;2023-05-10T01:06:50;6.97;;;4.68;;
29210;SDS011;16250;49.932;10.980;2023-05-10T01:09:17;5.32;;;4.30;;
29210;SDS011;16250;49.932;10.980;2023-05-10T01:11:43;5.65;;;4.70;;
29210;SDS011;16250;49.932;10.980;2023-05-10T01:14:08;8.10;;;5.00;;
29210;SDS011;16250;49.932;10.980;2023-05-10T01:16:36;5.57;;;4.25;;
29210;SDS011;16250;49.932;10.980;2023-05-10T01:19:03;5.88;;;4.95;;
29210;SDS011;16250;49.932;10.980;2023-05-10T01:24:12;6.00;;;5.13;;
29210;SDS011;16250;49.932;10.980;2023-05-10T01:32:43;7.25;;;4.93;;
29210;SDS011;16250;49.932;10.980;2023-05-10T01:35:17;5.15;;;4.65;;
29210;SDS011;16250;49.932;10.980;2023-05-10T01:37:47;6.20;;;5.18;;
29210;SDS011;16250;49.932;10.980;2023-05-10T01:40:25;6.90;;;4.78;;
29210;SDS011;16250;49.932;10.980;2023-05-10T01:42:53;6.00;;;5.40;;
29210;SDS011;16250;49.932;10.980;2023-05-10T01:47:53;7.85;;;4.78;;
29210;SDS011;16250;49.932;10.980;2023-05-10T01:50:24;7.00;;;5.78;;
29210;SDS011;16250;49.932;10.980;2023-05-10T01:52:54;5.60;;;5.10;;
29210;SDS011;16250;49.932;10.980;2023-05-10T01:55:20;6.15;;;5.55;;
29210;SDS011;16250;49.932;10.980;2023-05-10T01:57:46;6.18;;;5.32;;
29210;SDS011;16250;49.932;10.980;2023-05-10T02:00:13;12.32;;;6.40;;
29210;SDS011;16250;49.932;10.980;2023-05-10T02:02:40;7.07;;;6.38;;
29210;SDS011;16250;49.932;10.980;2023-05-10T02:05:07;7.25;;;6.53;;
29210;SDS011;16250;49.932;10.980;2023-05-10T02:07:36;7.50;;;6.88;;
29210;SDS011;16250;49.932;10.980;2023-05-10T02:10:02;7.07;;;6.38;;
29210;SDS011;16250;49.932;10.980;2023-05-10T02:12:29;9.65;;;7.03;;
29210;SDS011;16250;49.932;10.980;2023-05-10T02:14:56;12.20;;;7.72;;
29210;SDS011;16250;49.932;10.980;2023-05-10T02:17:22;8.98;;;8.15;;
29210;SDS011;16250;49.932;10.980;2023-05-10T02:19:48;9.35;;;8.55;;
29210;SDS011;16250;49.932;10.980;2023-05-10T02:22:14;12.52;;;11.63;;
29210;SDS011;16250;49.932;10.980;2023-05-10T02:24:40;14.90;;;13.77;;
29210;SDS011;16250;49.932;10.980;2023-05-10T02:27:06;19.17;;;17.70;;
29210;SDS011;16250;49.932;10.980;2023-05-10T02:29:32;25.58;;;24.00;;
29210;SDS011;16250;49.932;10.980;2023-05-10T02:31:58;33.70;;;31.90;;
29210;SDS011;16250;49.932;10.980;2023-05-10T02:34:27;32.75;;;31.05;;
29210;SDS011;16250;49.932;10.980;2023-05-10T02:36:53;37.47;;;35.55;;
29210;SDS011;16250;49.932;10.980;2023-05-10T02:39:19;46.50;;;44.15;;
29210;SDS011;16250;49.932;10.980;2023-05-10T02:41:46;47.80;;;45.40;;
29210;SDS011;16250;49.932;10.980;2023-05-10T02:44:15;47.78;;;45.28;;
29210;SDS011;16250;49.932;10.980;2023-05-10T02:46:42;53.97;;;51.28;;
29210;SDS011;16250;49.932;10.980;2023-05-10T02:49:08;55.95;;;53.10;;
29210;SDS011;16250;49.932;10.980;2023-05-10T02:51:34;55.15;;;52.25;;
29210;SDS011;16250;49.932;10.980;2023-05-10T02:54:03;62.40;;;59.30;;
29210;SDS011;16250;49.932;10.980;2023-05-10T02:56:35;71.35;;;67.85;;
29210;SDS011;16250;49.932;10.980;2023-05-10T02:59:01;73.63;;;69.85;;
29210;SDS011;16250;49.932;10.980;2023-05-10T03:01:26;73.75;;;70.00;;
29210;SDS011;16250;49.932;10.980;2023-05-10T03:03:52;75.90;;;71.93;;
29210;SDS011;16250;49.932;10.980;2023-05-10T03:06:17;79.40;;;74.95;;
29210;SDS011;16250;49.932;10.980;2023-05-10T03:08:43;80.75;;;76.13;;
29210;SDS011;16250;49.932;10.980;2023-05-10T03:14:10;81.35;;;76.80;;
29210;SDS011;16250;49.932;10.980;2023-05-10T03:16:44;79.88;;;75.15;;
29210;SDS011;16250;49.932;10.980;2023-05-10T03:19:16;79.78;;;75.03;;
29210;SDS011;16250;49.932;10.980;2023-05-10T03:21:44;78.43;;;74.13;;
29210;SDS011;16250;49.932;10.980;2023-05-10T03:24:12;79.97;;;75.35;;
29210;SDS011;16250;49.932;10.980;2023-05-10T03:26:41;76.43;;;72.13;;
29210;SDS011;16250;49.932;10.980;2023-05-10T03:29:13;74.30;;;70.22;;
29210;SDS011;16250;49.932;10.980;2023-05-10T03:31:39;72.68;;;68.60;;
29210;SDS011;16250;49.932;10.980;2023-05-10T03:34:06;71.20;;;67.30;;
29210;SDS011;16250;49.932;10.980;2023-05-10T03:36:32;72.93;;;68.72;;
29210;SDS011;16250;49.932;10.980;2023-05-10T03:38:58;72.22;;;67.80;;
29210;SDS011;16250;49.932;10.980;2023-05-10T03:41:23;71.18;;;67.28;;
29210;SDS011;16250;49.932;10.980;2023-05-10T03:43:50;70.05;;;66.15;;
29210;SDS011;16250;49.932;10.980;2023-05-10T03:46:16;70.65;;;66.60;;
29210;SDS011;16250;49.932;10.980;2023-05-10T03:48:41;69.93;;;65.72;;
29210;SDS011;16250;49.932;10.980;2023-05-10T03:51:07;67.47;;;63.53;;
29210;SDS011;16250;49.932;10.980;2023-05-10T03:53:32;65.10;;;61.50;;
29210;SDS011;16250;49.932;10.980;2023-05-10T03:55:57;68.13;;;64.43;;
29210;SDS011;16250;49.932;10.980;2023-05-10T03:58:23;67.82;;;64.13;;
29210;SDS011;16250;49.932;10.980;2023-05-10T04:00:48;66.45;;;62.65;;
29210;SDS011;16250;49.932;10.980;2023-05-10T04:03:14;65.18;;;61.28;;
29210;SDS011;16250;49.932;10.980;2023-05-10T04:05:39;62.92;;;59.53;;
29210;SDS011;16250;49.932;10.980;2023-05-10T04:08:05;65.55;;;61.63;;
29210;SDS011;16250;49.932;10.980;2023-05-10T04:10:31;64.57;;;60.75;;
29210;SDS011;16250;49.932;10.980;2023-05-10T04:12:57;68.03;;;63.67;;
29210;SDS011;16250;49.932;10.980;2023-05-10T04:15:22;67.47;;;63.28;;
29210;SDS011;16250;49.932;10.980;2023-05-10T04:17:48;64.00;;;60.20;;
29210;SDS011;16250;49.932;10.980;2023-05-10T04:20:13;61.08;;;57.50;;
29210;SDS011;16250;49.932;10.980;2023-05-10T04:22:39;58.05;;;54.80;;
29210;SDS011;16250;49.932;10.980;2023-05-10T04:25:04;58.75;;;55.55;;
29210;SDS011;16250;49.932;10.980;2023-05-10T04:27:31;59.70;;;56.70;;
29210;SDS011;16250;49.932;10.980;2023-05-10T04:29:56;60.42;;;57.53;;
29210;SDS011;16250;49.932;10.980;2023-05-10T04:32:22;58.78;;;56.08;;
29210;SDS011;16250;49.932;10.980;2023-05-10T04:34:47;56.33;;;53.70;;
29210;SDS011;16250;49.932;10.980;2023-05-10T04:37:13;58.38;;;55.67;;
29210;SDS011;16250;49.932;10.980;2023-05-10T04:39:38;57.20;;;54.60;;
29210;SDS011;16250;49.932;10.980;2023-05-10T04:42:04;56.05;;;53.25;;
29210;SDS011;16250;49.932;10.980;2023-05-10T04:44:30;56.30;;;53.72;;
29210;SDS011;16250;49.932;10.980;2023-05-10T04:46:59;59.10;;;56.40;;
29210;SDS011;16250;49.932;10.980;2023-05-10T04:49:25;57.67;;;55.08;;
29210;SDS011;16250;49.932;10.980;2023-05-10T04:51:50;56.20;;;53.70;;
29210;SDS011;16250;49.932;10.980;2023-05-10T04:54:16;56.75;;;54.25;;
29210;SDS011;16250;49.932;10.980;2023-05-10T04:56:41;55.22;;;52.83;;
29210;SDS011;16250;49.932;10.980;2023-05-10T04:59:06;55.33;;;52.83;;
29210;SDS011;16250;49.932;10.980;2023-05-10T05:01:32;56.53;;;53.92;;
29210;SDS011;16250;49.932;10.980;2023-05-10T05:03:57;57.75;;;55.05;;
29210;SDS011;16250;49.932;10.980;2023-05-10T05:06:23;54.95;;;52.45;;
29210;SDS011;16250;49.932;10.980;2023-05-10T05:08:49;56.28;;;53.65;;
29210;SDS011;16250;49.932;10.980;2023-05-10T05:11:15;55.17;;;52.67;;
29210;SDS011;16250;49.932;10.980;2023-05-10T05:13:41;56.42;;;53.92;;
29210;SDS011;16250;49.932;10.980;2023-05-10T05:16:06;55.42;;;52.83;;
29210;SDS011;16250;49.932;10.980;2023-05-10T05:18:32;55.60;;;53.08;;
29210;SDS011;16250;49.932;10.980;2023-05-10T05:20:57;55.90;;;53.40;;
29210;SDS011;16250;49.932;10.980;2023-05-10T05:23:22;55.35;;;52.95;;
29210;SDS011;16250;49.932;10.980;2023-05-10T05:25:51;56.53;;;54.13;;
29210;SDS011;16250;49.932;10.980;2023-05-10T05:28:17;57.75;;;55.25;;
29210;SDS011;16250;49.932;10.980;2023-05-10T05:30:42;63.22;;;59.60;;
29210;SDS011;16250;49.932;10.980;2023-05-10T05:33:08;55.75;;;53.35;;
29210;SDS011;16250;49.932;10.980;2023-05-10T05:35:33;71.60;;;66.45;;
29210;SDS011;16250;49.932;10.980;2023-05-10T05:37:59;74.38;;;68.80;;
29210;SDS011;16250;49.932;10.980;2023-05-10T05:40:24;66.03;;;62.22;;
29210;SDS011;16250;49.932;10.980;2023-05-10T05:42:50;73.35;;;67.72;;
29210;SDS011;16250;49.932;10.980;2023-05-10T05:45:15;62.25;;;58.85;;
29210;SDS011;16250;49.932;10.980;2023-05-10T05:47:41;64.35;;;60.25;;
29210;SDS011;16250;49.932;10.980;2023-05-10T05:50:06;54.58;;;52.08;;
29210;SDS011;16250;49.932;10.980;2023-05-10T05:52:32;55.65;;;53.20;;
29210;SDS011;16250;49.932;10.980;2023-05-10T05:54:57;57.95;;;55.40;;
29210;SDS011;16250;49.932;10.980;2023-05-10T05:57:23;56.45;;;54.05;;
29210;SDS011;16250;49.932;10.980;2023-05-10T05:59:48;56.78;;;54.17;;
29210;SDS011;16250;49.932;10.980;2023-05-10T06:02:14;54.92;;;52.33;;
29210;SDS011;16250;49.932;10.980;2023-05-10T06:04:39;57.00;;;54.30;;
29210;SDS011;16250;49.932;10.980;2023-05-10T06:07:04;59.20;;;56.40;;
29210;SDS011;16250;49.932;10.980;2023-05-10T06:09:30;56.67;;;54.08;;
29210;SDS011;16250;49.932;10.980;2023-05-10T06:11:55;54.80;;;52.20;;
29210;SDS011;16250;49.932;10.980;2023-05-10T06:14:21;54.60;;;52.22;;
29210;SDS011;16250;49.932;10.980;2023-05-10T06:16:46;55.17;;;52.58;;
29210;SDS011;16250;49.932;10.980;2023-05-10T06:19:12;56.65;;;54.25;;
29210;SDS011;16250;49.932;10.980;2023-05-10T06:21:37;55.33;;;52.92;;
29210;SDS011;16250;49.932;10.980;2023-05-10T06:24:03;55.22;;;52.75;;
29210;SDS011;16250;49.932;10.980;2023-05-10T06:26:28;54.80;;;52.33;;
29210;SDS011;16250;49.932;10.980;2023-05-10T06:28:54;54.17;;;51.88;;
29210;SDS011;16250;49.932;10.980;2023-05-10T06:31:19;55.40;;;52.88;;
29210;SDS011;16250;49.932;10.980;2023-05-10T06:33:45;54.08;;;51.78;;
29210;SDS011;16250;49.932;10.980;2023-05-10T06:36:10;53.38;;;50.97;;
29210;SDS011;16250;49.932;10.980;2023-05-10T06:38:36;55.75;;;53.25;;
29210;SDS011;16250;49.932;10.980;2023-05-10T06:41:01;53.72;;;51.42;;
29210;SDS011;16250;49.932;10.980;2023-05-10T06:43:27;54.08;;;51.67;;
29210;SDS011;16250;49.932;10.980;2023-05-10T06:45:53;54.90;;;52.45;;
29210;SDS011;16250;49.932;10.980;2023-05-10T06:48:19;54.30;;;51.90;;
29210;SDS011;16250;49.932;10.980;2023-05-10T06:50:44;55.15;;;52.65;;
29210;SDS011;16250;49.932;10.980;2023-05-10T06:53:09;56.17;;;53.58;;
29210;SDS011;16250;49.932;10.980;2023-05-10T06:55:35;54.33;;;52.00;;
29210;SDS011;16250;49.932;10.980;2023-05-10T06:58:00;53.25;;;50.95;;
29210;SDS011;16250;49.932;10.980;2023-05-10T07:00:27;54.38;;;52.08;;
29210;SDS011;16250;49.932;10.980;2023-05-10T07:02:52;52.08;;;49.88;;
29210;SDS011;16250;49.932;10.980;2023-05-10T07:05:18;54.42;;;52.10;;
29210;SDS011;16250;49.932;10.980;2023-05-10T07:07:43;50.58;;;48.30;;
29210;SDS011;16250;49.932;10.980;2023-05-10T07:10:09;48.58;;;46.65;;
29210;SDS011;16250;49.932;10.980;2023-05-10T07:12:34;46.08;;;44.17;;
29210;SDS011;16250;49.932;10.980;2023-05-10T07:14:59;49.25;;;47.15;;
29210;SDS011;16250;49.932;10.980;2023-05-10T07:17:25;48.55;;;46.55;;
29210;SDS011;16250;49.932;10.980;2023-05-10T07:19:50;47.25;;;45.35;;
29210;SDS011;16250;49.932;10.980;2023-05-10T07:22:16;29.23;;;28.02;;
29210;SDS011;16250;49.932;10.980;2023-05-10T07:24:41;36.63;;;35.22;;
29210;SDS011;16250;49.932;10.980;2023-05-10T07:27:07;32.45;;;31.08;;
29210;SDS011;16250;49.932;10.980;2023-05-10T07:29:33;34.38;;;32.97;;
29210;SDS011;16250;49.932;10.980;2023-05-10T07:31:58;38.50;;;37.00;;
29210;SDS011;16250;49.932;10.980;2023-05-10T07:34:23;46.58;;;44.67;;
29210;SDS011;16250;49.932;10.980;2023-05-10T07:36:49;40.05;;;38.47;;
29210;SDS011;16250;49.932;10.980;2023-05-10T07:39:14;39.00;;;37.40;;
29210;SDS011;16250;49.932;10.980;2023-05-10T07:41:39;29.23;;;27.98;;
29210;SDS011;16250;49.932;10.980;2023-05-10T07:44:05;27.63;;;26.52;;
29210;SDS011;16250;49.932;10.980;2023-05-10T07:46:31;28.95;;;27.85;;
29210;SDS011;16250;49.932;10.980;2023-05-10T07:48:56;31.13;;;29.83;;
29210;SDS011;16250;49.932;10.980;2023-05-10T07:51:21;27.17;;;25.70;;
29210;SDS011;16250;49.932;10.980;2023-05-10T07:53:47;26.27;;;25.17;;
29210;SDS011;16250;49.932;10.980;2023-05-10T07:56:25;21.75;;;20.75;;
29210;SDS011;16250;49.932;10.980;2023-05-10T07:58:54;20.67;;;19.88;;
29210;SDS011;16250;49.932;10.980;2023-05-10T08:01:20;16.83;;;15.93;;
29210;SDS011;16250;49.932;10.980;2023-05-10T08:03:45;20.13;;;19.33;;
29210;SDS011;16250;49.932;10.980;2023-05-10T08:06:10;11.38;;;10.90;;
29210;SDS011;16250;49.932;10.980;2023-05-10T08:08:36;11.07;;;10.60;;
29210;SDS011;16250;49.932;10.980;2023-05-10T08:11:01;19.92;;;19.02;;
29210;SDS011;16250;49.932;10.980;2023-05-10T08:13:27;16.50;;;15.85;;
29210;SDS011;16250;49.932;10.980;2023-05-10T08:15:52;21.38;;;20.38;;
29210;SDS011;16250;49.932;10.980;2023-05-10T08:18:18;19.48;;;18.38;;
29210;SDS011;16250;49.932;10.980;2023-05-10T08:20:44;25.02;;;24.00;;
29210;SDS011;16250;49.932;10.980;2023-05-10T08:23:09;20.42;;;19.63;;
29210;SDS011;16250;49.932;10.980;2023-05-10T08:25:35;25.13;;;24.02;;
29210;SDS011;16250;49.932;10.980;2023-05-10T08:28:00;21.75;;;20.75;;
29210;SDS011;16250;49.932;10.980;2023-05-10T08:30:25;15.45;;;14.75;;
29210;SDS011;16250;49.932;10.980;2023-05-10T08:32:51;16.13;;;15.43;;
29210;SDS011;16250;49.932;10.980;2023-05-10T08:35:16;15.07;;;14.35;;
29210;SDS011;16250;49.932;10.980;2023-05-10T08:37:42;8.35;;;7.97;;
29210;SDS011;16250;49.932;10.980;2023-05-10T08:40:07;11.18;;;10.57;;
29210;SDS011;16250;49.932;10.980;2023-05-10T08:42:35;13.38;;;12.75;;
29210;SDS011;16250;49.932;10.980;2023-05-10T08:45:02;13.82;;;13.30;;
29210;SDS011;16250;49.932;10.980;2023-05-10T08:47:28;9.40;;;8.93;;
29210;SDS011;16250;49.932;10.980;2023-05-10T08:49:54;13.80;;;13.20;;
29210;SDS011;16250;49.932;10.980;2023-05-10T08:52:19;18.33;;;17.35;;
29210;SDS011;16250;49.932;10.980;2023-05-10T08:54:45;13.95;;;13.25;;
29210;SDS011;16250;49.932;10.980;2023-05-10T08:57:11;6.20;;;6.00;;
29210;SDS011;16250;49.932;10.980;2023-05-10T08:59:36;5.82;;;5.43;;
29210;SDS011;16250;49.932;10.980;2023-05-10T09:02:04;6.25;;;5.95;;
29210;SDS011;16250;49.932;10.980;2023-05-10T09:04:31;4.30;;;4.10;;
29210;SDS011;16250;49.932;10.980;2023-05-10T09:06:56;7.35;;;7.05;;
29210;SDS011;16250;49.932;10.980;2023-05-10T09:09:22;11.85;;;11.35;;
29210;SDS011;16250;49.932;10.980;2023-05-10T09:11:48;10.77;;;10.23;;
29210;SDS011;16250;49.932;10.980;2023-05-10T09:14:14;5.18;;;4.97;;
29210;SDS011;16250;49.932;10.980;2023-05-10T09:16:40;5.00;;;4.80;;
29210;SDS011;16250;49.932;10.980;2023-05-10T09:19:06;8.50;;;8.10;;
29210;SDS011;16250;49.932;10.980;2023-05-10T09:21:34;8.35;;;7.78;;
29210;SDS011;16250;49.932;10.980;2023-05-10T09:24:03;9.75;;;9.15;;
29210;SDS011;16250;49.932;10.980;2023-05-10T09:26:30;10.40;;;9.90;;
29210;SDS011;16250;49.932;10.980;2023-05-10T09:28:56;15.40;;;14.70;;
29210;SDS011;16250;49.932;10.980;2023-05-10T09:31:22;24.00;;;23.00;;
29210;SDS011;16250;49.932;10.980;2023-05-10T09:33:49;25.58;;;24.55;;
29210;SDS011;16250;49.932;10.980;2023-05-10T09:36:14;28.30;;;27.10;;
29210;SDS011;16250;49.932;10.980;2023-05-10T09:38:47;30.88;;;29.58;;
29210;SDS011;16250;49.932;10.980;2023-05-10T09:41:23;32.40;;;30.92;;
29210;SDS011;16250;49.932;10.980;2023-05-10T09:43:48;40.22;;;38.63;;
29210;SDS011;16250;49.932;10.980;2023-05-10T09:46:14;40.78;;;39.08;;
29210;SDS011;16250;49.932;10.980;2023-05-10T09:48:41;34.50;;;33.00;;
29210;SDS011;16250;49.932;10.980;2023-05-10T09:51:08;30.50;;;29.17;;
29210;SDS011;16250;49.932;10.980;2023-05-10T09:53:33;31.80;;;30.20;;
29210;SDS011;16250;49.932;10.980;2023-05-10T09:55:58;26.45;;;25.30;;
29210;SDS011;16250;49.932;10.980;2023-05-10T09:58:24;24.73;;;23.70;;
29210;SDS011;16250;49.932;10.980;2023-05-10T10:00:49;27.55;;;26.45;;
29210;SDS011;16250;49.932;10.980;2023-05-10T10:03:21;23.17;;;22.17;;
29210;SDS011;16250;49.932;10.980;2023-05-10T10:05:47;21.38;;;20.38;;
29210;SDS011;16250;49.932;10.980;2023-05-10T10:08:14;16.48;;;15.57;;
29210;SDS011;16250;49.932;10.980;2023-05-10T10:10:39;10.20;;;9.70;;
29210;SDS011;16250;49.932;10.980;2023-05-10T10:13:05;10.57;;;10.00;;
29210;SDS011;16250;49.932;10.980;2023-05-10T10:15:31;10.35;;;9.75;;
29210;SDS011;16250;49.932;10.980;2023-05-10T10:17:57;18.88;;;17.98;;
29210;SDS011;16250;49.932;10.980;2023-05-10T10:20:23;16.02;;;15.32;;
29210;SDS011;16250;49.932;10.980;2023-05-10T10:22:50;16.77;;;15.98;;
29210;SDS011;16250;49.932;10.980;2023-05-10T10:25:16;21.02;;;20.02;;
29210;SDS011;16250;49.932;10.980;2023-05-10T10:33:10;4.20;;;3.90;;
29210;SDS011;16250;49.932;10.980;2023-05-10T10:35:38;3.70;;;3.40;;
29210;SDS011;16250;49.932;10.980;2023-05-10T10:38:04;5.30;;;4.88;;
29210;SDS011;16250;49.932;10.980;2023-05-10T10:40:33;2.72;;;2.53;;
29210;SDS011;16250;49.932;10.980;2023-05-10T10:48:38;6.93;;;6.43;;
29210;SDS011;16250;49.932;10.980;2023-05-10T10:51:04;5.05;;;4.85;;
29210;SDS011;16250;49.932;10.980;2023-05-10T10:53:29;6.43;;;6.13;;
29210;SDS011;16250;49.932;10.980;2023-05-10T10:56:05;7.00;;;6.70;;
29210;SDS011;16250;49.932;10.980;2023-05-10T10:58:35;11.85;;;11.05;;
29210;SDS011;16250;49.932;10.980;2023-05-10T11:01:12;9.35;;;8.88;;
29210;SDS011;16250;49.932;10.980;2023-05-10T11:06:30;5.53;;;4.82;;
29210;SDS011;16250;49.932;10.980;2023-05-10T11:09:09;4.50;;;4.20;;
29210;SDS011;16250;49.932;10.980;2023-05-10T11:11:36;4.60;;;4.38;;
29210;SDS011;16250;49.932;10.980;2023-05-10T11:14:13;3.88;;;3.58;;
29210;SDS011;16250;49.932;10.980;2023-05-10T11:16:42;9.77;;;5.38;;
29210;SDS011;16250;49.932;10.980;2023-05-10T11:19:10;5.03;;;4.65;;
29210;SDS011;16250;49.932;10.980;2023-05-10T11:21:47;4.65;;;3.40;;
29210;SDS011;16250;49.932;10.980;2023-05-10T11:24:30;3.20;;;2.90;;
29210;SDS011;16250;49.932;10.980;2023-05-10T11:26:56;4.72;;;4.43;;
29210;SDS011;16250;49.932;10.980;2023-05-10T11:29:21;5.25;;;4.95;;
29210;SDS011;16250;49.932;10.980;2023-05-10T11:31:47;5.63;;;5.13;;
29210;SDS011;16250;49.932;10.980;2023-05-10T11:34:29;7.63;;;7.22;;
29210;SDS011;16250;49.932;10.980;2023-05-10T11:36:58;6.38;;;5.88;;
29210;SDS011;16250;49.932;10.980;2023-05-10T11:39:27;9.55;;;9.10;;
29210;SDS011;16250;49.932;10.980;2023-05-10T11:41:56;7.65;;;7.25;;
29210;SDS011;16250;49.932;10.980;2023-05-10T11:44:22;7.72;;;7.32;;
29210;SDS011;16250;49.932;10.980;2023-05-10T11:46:47;4.60;;;4.30;;
29210;SDS011;16250;49.932;10.980;2023-05-10T11:49:13;6.03;;;5.63;;
29210;SDS011;16250;49.932;10.980;2023-05-10T11:51:39;4.60;;;4.20;;
29210;SDS011;16250;49.932;10.980;2023-05-10T11:54:08;6.03;;;5.65;;
29210;SDS011;16250;49.932;10.980;2023-05-10T11:56:39;5.68;;;5.18;;
29210;SDS011;16250;49.932;10.980;2023-05-10T11:59:05;3.55;;;3.35;;
29210;SDS011;16250;49.932;10.980;2023-05-10T12:01:31;5.30;;;4.90;;
29210;SDS011;16250;49.932;10.980;2023-05-10T12:03:57;2.58;;;2.38;;
29210;SDS011;16250;49.932;10.980;2023-05-10T12:06:26;3.42;;;2.20;;
29210;SDS011;16250;49.932;10.980;2023-05-10T12:08:52;2.95;;;2.67;;
29210;SDS011;16250;49.932;10.980;2023-05-10T12:11:18;2.53;;;2.30;;
29210;SDS011;16250;49.932;10.980;2023-05-10T12:13:44;3.28;;;1.83;;
29210;SDS011;16250;49.932;10.980;2023-05-10T12:16:16;4.38;;;2.40;;
29210;SDS011;16250;49.932;10.980;2023-05-10T12:18:42;2.78;;;1.50;;
29210;SDS011;16250;49.932;10.980;2023-05-10T12:21:09;3.65;;;1.50;;
29210;SDS011;16250;49.932;10.980;2023-05-10T12:23:36;1.70;;;1.60;;
29210;SDS011;16250;49.932;10.980;2023-05-10T12:26:02;2.22;;;1.65;;
29210;SDS011;16250;49.932;10.980;2023-05-10T12:28:29;3.35;;;1.83;;
29210;SDS011;16250;49.932;10.980;2023-05-10T12:30:56;1.92;;;1.70;;
29210;SDS011;16250;49.932;10.980;2023-05-10T12:33:22;2.20;;;1.67;;
29210;SDS011;16250;49.932;10.980;2023-05-10T12:35:48;4.20;;;2.70;;
29210;SDS011;16250;49.932;10.980;2023-05-10T12:38:29;3.15;;;1.63;;
29210;SDS011;16250;49.932;10.980;2023-05-10T12:40:58;2.67;;;1.85;;
29210;SDS011;16250;49.932;10.980;2023-05-10T12:43:24;3.15;;;1.60;;
29210;SDS011;16250;49.932;10.980;2023-05-10T12:45:50;3.15;;;1.60;;
29210;SDS011;16250;49.932;10.980;2023-05-10T12:48:15;1.83;;;1.63;;
29210;SDS011;16250;49.932;10.980;2023-05-10T12:50:40;2.72;;;2.35;;
29210;SDS011;16250;49.932;10.980;2023-05-10T12:53:06;3.97;;;2.47;;
29210;SDS011;16250;49.932;10.980;2023-05-10T12:55:31;2.53;;;2.38;;
29210;SDS011;16250;49.932;10.980;2023-05-10T12:57:57;3.60;;;2.85;;
29210;SDS011;16250;49.932;10.980;2023-05-10T13:00:22;2.88;;;2.20;;
29210;SDS011;16250;49.932;10.980;2023-05-10T13:02:48;4.03;;;2.70;;
29210;SDS011;16250;49.932;10.980;2023-05-10T13:05:13;2.72;;;1.90;;
29210;SDS011;16250;49.932;10.980;2023-05-10T13:07:38;2.78;;;2.00;;
29210;SDS011;16250;49.932;10.980;2023-05-10T13:10:05;3.10;;;2.60;;
29210;SDS011;16250;49.932;10.980;2023-05-10T13:12:31;4.20;;;2.53;;
29210;SDS011;16250;49.932;10.980;2023-05-10T13:14:56;3.45;;;2.00;;
29210;SDS011;16250;49.932;10.980;2023-05-10T13:17:21;2.45;;;2.10;;
29210;SDS011;16250;49.932;10.980;2023-05-10T13:19:47;2.63;;;1.80;;
29210;SDS011;16250;49.932;10.980;2023-05-10T13:22:12;2.55;;;1.88;;
29210;SDS011;16250;49.932;10.980;2023-05-10T13:24:38;1.08;;;0.98;;
29210;SDS011;16250;49.932;10.980;2023-05-10T13:27:03;1.25;;;1.15;;
29210;SDS011;16250;49.932;10.980;2023-05-10T13:29:28;2.28;;;1.13;;
29210;SDS011;16250;49.932;10.980;2023-05-10T13:31:54;1.48;;;1.25;;
29210;SDS011;16250;49.932;10.980;2023-05-10T13:34:19;1.27;;;1.10;;
29210;SDS011;16250;49.932;10.980;2023-05-10T13:36:45;1.38;;;0.95;;
29210;SDS011;16250;49.932;10.980;2023-05-10T13:39:11;1.20;;;1.10;;
29210;SDS011;16250;49.932;10.980;2023-05-10T13:41:37;1.30;;;1.20;;
29210;SDS011;16250;49.932;10.980;2023-05-10T13:44:02;1.30;;;1.00;;
29210;SDS011;16250;49.932;10.980;2023-05-10T13:46:28;3.05;;;1.20;;
29210;SDS011;16250;49.932;10.980;2023-05-10T13:48:54;1.25;;;1.05;;
29210;SDS011;16250;49.932;10.980;2023-05-10T13:51:19;1.77;;;1.17;;
29210;SDS011;16250;49.932;10.980;2023-05-10T13:53:45;1.95;;;1.00;;
29210;SDS011;16250;49.932;10.980;2023-05-10T13:56:12;15.57;;;2.58;;
29210;SDS011;16250;49.932;10.980;2023-05-10T13:58:37;4.40;;;1.00;;
29210;SDS011;16250;49.932;10.980;2023-05-10T14:01:03;2.08;;;1.17;;
29210;SDS011;16250;49.932;10.980;2023-05-10T14:03:29;2.53;;;1.40;;
29210;SDS011;16250;49.932;10.980;2023-05-10T14:05:55;1.65;;;1.20;;
29210;SDS011;16250;49.932;10.980;2023-05-10T14:08:20;1.85;;;1.20;;
29210;SDS011;16250;49.932;10.980;2023-05-10T14:10:46;2.95;;;1.38;;
29210;SDS011;16250;49.932;10.980;2023-05-10T14:13:11;4.30;;;1.40;;
29210;SDS011;16250;49.932;10.980;2023-05-10T14:15:37;1.95;;;1.30;;
29210;SDS011;16250;49.932;10.980;2023-05-10T14:18:02;3.05;;;1.52;;
29210;SDS011;16250;49.932;10.980;2023-05-10T14:20:28;2.72;;;1.50;;
29210;SDS011;16250;49.932;10.980;2023-05-10T14:22:54;1.73;;;1.45;;
29210;SDS011;16250;49.932;10.980;2023-05-10T14:25:19;3.22;;;1.50;;
29210;SDS011;16250;49.932;10.980;2023-05-10T14:27:45;3.33;;;1.65;;
29210;SDS011;16250;49.932;10.980;2023-05-10T14:30:10;1.73;;;1.60;;
29210;SDS011;16250;49.932;10.980;2023-05-10T14:32:36;2.17;;;1.50;;
29210;SDS011;16250;49.932;10.980;2023-05-10T14:35:02;1.25;;;1.13;;
29210;SDS011;16250;49.932;10.980;2023-05-10T14:37:28;1.10;;;1.00;;
29210;SDS011;16250;49.932;10.980;2023-05-10T14:39:53;1.80;;;1.15;;
29210;SDS011;16250;49.932;10.980;2023-05-10T14:42:19;1.45;;;1.08;;
29210;SDS011;16250;49.932;10.980;2023-05-10T14:44:44;2.63;;;1.58;;